SHT9C EGPH-EGLL
Flight info
| Callsign | SHT9C |
|---|---|
| Flight time | 0h 56m |
| Altitude | 25000 |
| Route | DCT GOSAM DCT FENIK L612 ELBUS DCT LAKEY/N0441F330 DCT NUGRA NUGRA2H |
| Aircraft | A320/M-SDE3FGIJ1KRWXY/SB1 |
Departure
| Time | 2026-05-06 14:54 |
|---|---|
| Airport | Edinburgh Airport (EGPH) |
Arrival
| Time | 2026-05-06 15:50 |
|---|---|
| Airport | London Heathrow Airport (EGLL) |
| Time | Latitude | Longitude | Altitude | Speed | Heading |
|---|---|---|---|---|---|
| 2026-05-06 14:41 | 55.94854 | -3.36604 | 116 ft | 0 kts | 145° |
| 2026-05-06 14:45 | 55.94865 | -3.36617 | 113 ft | 3 kts | 148° |
| 2026-05-06 14:46 | 55.94883 | -3.36636 | 114 ft | 3 kts | 154° |
| 2026-05-06 14:46 | 55.94901 | -3.36649 | 113 ft | 3 kts | 167° |
| 2026-05-06 14:46 | 55.94920 | -3.36653 | 115 ft | 3 kts | 200° |
| 2026-05-06 14:46 | 55.94931 | -3.36642 | 112 ft | 1 kts | 239° |
| 2026-05-06 14:47 | 55.94933 | -3.36635 | 112 ft | 0 kts | 239° |
| 2026-05-06 14:50 | 55.94931 | -3.36642 | 112 ft | 3 kts | 239° |
| 2026-05-06 14:50 | 55.94915 | -3.36690 | 113 ft | 6 kts | 239° |
| 2026-05-06 14:50 | 55.94895 | -3.36781 | 114 ft | 10 kts | 277° |
| 2026-05-06 14:50 | 55.94923 | -3.36901 | 114 ft | 13 kts | 251° |
| 2026-05-06 14:51 | 55.94870 | -3.37061 | 114 ft | 17 kts | 238° |
| 2026-05-06 14:51 | 55.94801 | -3.37260 | 113 ft | 20 kts | 238° |
| 2026-05-06 14:51 | 55.94723 | -3.37484 | 114 ft | 22 kts | 239° |
| 2026-05-06 14:51 | 55.94641 | -3.37732 | 113 ft | 24 kts | 239° |
| 2026-05-06 14:52 | 55.94552 | -3.38004 | 115 ft | 26 kts | 239° |
| 2026-05-06 14:52 | 55.94452 | -3.38294 | 114 ft | 28 kts | 239° |
| 2026-05-06 14:52 | 55.94361 | -3.38562 | 114 ft | 25 kts | 239° |
| 2026-05-06 14:52 | 55.94287 | -3.38782 | 116 ft | 18 kts | 241° |
| 2026-05-06 14:53 | 55.94334 | -3.38925 | 114 ft | 16 kts | 328° |
| 2026-05-06 14:53 | 55.94429 | -3.38936 | 113 ft | 14 kts | 58° |
| 2026-05-06 14:53 | 55.94495 | -3.38736 | 113 ft | 31 kts | 59° |
| 2026-05-06 14:53 | 55.94725 | -3.38060 | 115 ft | 94 kts | 59° |
| 2026-05-06 14:54 | 55.95151 | -3.36803 | 115 ft | 141 kts | 59° |
| 2026-05-06 14:54 | 55.95674 | -3.35284 | 625 ft | 142 kts | 59° |
| 2026-05-06 14:54 | 55.96279 | -3.33871 | 1170 ft | 146 kts | 41° |
| 2026-05-06 14:54 | 55.97059 | -3.32742 | 1692 ft | 143 kts | 44° |
| 2026-05-06 14:55 | 55.97844 | -3.31468 | 1873 ft | 163 kts | 45° |
| 2026-05-06 14:55 | 55.98753 | -3.29968 | 1984 ft | 192 kts | 44° |
| 2026-05-06 14:55 | 55.99875 | -3.28432 | 2227 ft | 218 kts | 23° |
| 2026-05-06 14:55 | 56.01444 | -3.28230 | 2561 ft | 242 kts | 343° |
| 2026-05-06 14:56 | 56.02782 | -3.29765 | 2981 ft | 258 kts | 307° |
| 2026-05-06 14:56 | 56.03425 | -3.32686 | 3723 ft | 260 kts | 270° |
| 2026-05-06 14:56 | 56.03246 | -3.35893 | 4664 ft | 260 kts | 256° |
| 2026-05-06 14:56 | 56.02792 | -3.39023 | 5620 ft | 261 kts | 252° |
| 2026-05-06 14:57 | 56.02254 | -3.42129 | 6545 ft | 263 kts | 252° |
| 2026-05-06 14:57 | 56.01708 | -3.45263 | 7379 ft | 266 kts | 253° |
| 2026-05-06 14:57 | 56.01180 | -3.48456 | 8188 ft | 269 kts | 254° |
| 2026-05-06 14:57 | 56.00673 | -3.51706 | 8980 ft | 273 kts | 254° |
| 2026-05-06 14:58 | 56.00178 | -3.55007 | 9776 ft | 277 kts | 255° |
| 2026-05-06 14:58 | 55.99685 | -3.58378 | 10393 ft | 287 kts | 255° |
| 2026-05-06 14:58 | 55.99168 | -3.61972 | 10579 ft | 310 kts | 255° |
| 2026-05-06 14:58 | 55.98615 | -3.65827 | 10847 ft | 328 kts | 256° |
| 2026-05-06 14:59 | 55.98044 | -3.69814 | 11451 ft | 334 kts | 256° |
| 2026-05-06 14:59 | 55.97468 | -3.73847 | 12143 ft | 336 kts | 256° |
| 2026-05-06 14:59 | 55.96886 | -3.77906 | 12857 ft | 338 kts | 256° |
| 2026-05-06 14:59 | 55.96299 | -3.81984 | 13584 ft | 340 kts | 256° |
| 2026-05-06 15:00 | 55.95706 | -3.86089 | 14231 ft | 343 kts | 256° |
| 2026-05-06 15:00 | 55.95114 | -3.90165 | 14839 ft | 345 kts | 256° |
| 2026-05-06 15:00 | 55.94511 | -3.94319 | 15439 ft | 347 kts | 256° |
| 2026-05-06 15:00 | 55.93795 | -3.98446 | 16028 ft | 350 kts | 248° |
| 2026-05-06 15:01 | 55.92566 | -4.02210 | 16625 ft | 354 kts | 234° |
| 2026-05-06 15:01 | 55.90829 | -4.05368 | 17224 ft | 360 kts | 220° |
| 2026-05-06 15:01 | 55.88766 | -4.07945 | 17832 ft | 364 kts | 217° |
| 2026-05-06 15:01 | 55.86670 | -4.10509 | 18424 ft | 367 kts | 217° |
| 2026-05-06 15:02 | 55.84562 | -4.13089 | 18949 ft | 370 kts | 217° |
| 2026-05-06 15:02 | 55.82432 | -4.15696 | 19480 ft | 373 kts | 217° |
| 2026-05-06 15:02 | 55.80277 | -4.18333 | 20000 ft | 377 kts | 217° |
| 2026-05-06 15:02 | 55.78136 | -4.20950 | 20525 ft | 381 kts | 217° |
| 2026-05-06 15:03 | 55.75788 | -4.23227 | 21029 ft | 389 kts | 206° |
| 2026-05-06 15:03 | 55.73174 | -4.24627 | 21513 ft | 397 kts | 194° |
| 2026-05-06 15:03 | 55.70388 | -4.25009 | 21989 ft | 407 kts | 181° |
| 2026-05-06 15:03 | 55.67564 | -4.24275 | 22433 ft | 415 kts | 167° |
| 2026-05-06 15:04 | 55.64825 | -4.22530 | 22879 ft | 422 kts | 158° |
| 2026-05-06 15:04 | 55.62212 | -4.20062 | 23311 ft | 428 kts | 153° |
| 2026-05-06 15:04 | 55.59604 | -4.17471 | 23731 ft | 431 kts | 153° |
| 2026-05-06 15:04 | 55.56978 | -4.14891 | 24105 ft | 433 kts | 153° |
| 2026-05-06 15:05 | 55.54331 | -4.12319 | 24503 ft | 435 kts | 153° |
| 2026-05-06 15:05 | 55.51669 | -4.09740 | 24878 ft | 437 kts | 153° |
| 2026-05-06 15:05 | 55.48995 | -4.07154 | 25262 ft | 439 kts | 154° |
| 2026-05-06 15:05 | 55.46286 | -4.04616 | 25624 ft | 441 kts | 154° |
| 2026-05-06 15:06 | 55.43588 | -4.02169 | 25976 ft | 443 kts | 155° |
| 2026-05-06 15:06 | 55.40830 | -3.99721 | 26329 ft | 445 kts | 155° |
| 2026-05-06 15:06 | 55.38050 | -3.97276 | 26682 ft | 447 kts | 155° |
| 2026-05-06 15:06 | 55.35259 | -3.94822 | 27028 ft | 450 kts | 155° |
| 2026-05-06 15:07 | 55.32456 | -3.92347 | 27367 ft | 452 kts | 155° |
| 2026-05-06 15:07 | 55.29639 | -3.89842 | 27702 ft | 454 kts | 155° |
| 2026-05-06 15:07 | 55.26812 | -3.87317 | 28048 ft | 457 kts | 155° |
| 2026-05-06 15:07 | 55.23968 | -3.84772 | 28379 ft | 459 kts | 154° |
| 2026-05-06 15:08 | 55.21107 | -3.82215 | 28697 ft | 461 kts | 154° |
| 2026-05-06 15:08 | 55.18236 | -3.79659 | 29029 ft | 464 kts | 154° |
| 2026-05-06 15:08 | 55.15357 | -3.77102 | 29460 ft | 463 kts | 154° |
| 2026-05-06 15:08 | 55.12524 | -3.74590 | 29925 ft | 462 kts | 154° |
| 2026-05-06 15:09 | 55.09653 | -3.72049 | 30337 ft | 462 kts | 154° |
| 2026-05-06 15:09 | 55.06787 | -3.69515 | 30715 ft | 461 kts | 154° |
| 2026-05-06 15:09 | 55.03926 | -3.66994 | 31105 ft | 461 kts | 155° |
| 2026-05-06 15:09 | 55.01064 | -3.64480 | 31490 ft | 460 kts | 155° |
| 2026-05-06 15:10 | 54.98207 | -3.61971 | 31872 ft | 460 kts | 155° |
| 2026-05-06 15:10 | 54.95350 | -3.59466 | 32270 ft | 459 kts | 155° |
| 2026-05-06 15:10 | 54.92491 | -3.56962 | 32669 ft | 459 kts | 155° |
| 2026-05-06 15:10 | 54.89638 | -3.54473 | 32983 ft | 459 kts | 155° |
| 2026-05-06 15:11 | 54.86778 | -3.51985 | 33046 ft | 463 kts | 155° |
| 2026-05-06 15:11 | 54.81003 | -3.46970 | 33041 ft | 465 kts | 155° |
| 2026-05-06 15:12 | 54.75215 | -3.41951 | 33043 ft | 464 kts | 155° |
| 2026-05-06 15:12 | 54.69441 | -3.36957 | 33042 ft | 463 kts | 155° |
| 2026-05-06 15:13 | 54.63681 | -3.31978 | 33039 ft | 463 kts | 155° |
| 2026-05-06 15:13 | 54.57921 | -3.27023 | 33043 ft | 462 kts | 155° |
| 2026-05-06 15:14 | 54.52161 | -3.22089 | 33045 ft | 462 kts | 155° |
| 2026-05-06 15:14 | 54.46439 | -3.17215 | 33043 ft | 461 kts | 155° |
| 2026-05-06 15:15 | 54.40687 | -3.12333 | 33047 ft | 461 kts | 155° |
| 2026-05-06 15:15 | 54.34940 | -3.07457 | 33046 ft | 460 kts | 155° |
| 2026-05-06 15:16 | 54.29202 | -3.02599 | 33041 ft | 460 kts | 155° |
| 2026-05-06 15:16 | 54.23442 | -2.97895 | 33042 ft | 458 kts | 161° |
| 2026-05-06 15:17 | 54.17420 | -2.94399 | 33044 ft | 456 kts | 163° |
| 2026-05-06 15:17 | 54.12418 | -2.91520 | 33050 ft | 456 kts | 163° |
| 2026-05-06 15:18 | 54.06407 | -2.88070 | 33044 ft | 456 kts | 163° |
| 2026-05-06 15:18 | 53.99421 | -2.84080 | 33044 ft | 455 kts | 163° |
| 2026-05-06 15:19 | 53.94390 | -2.81215 | 33038 ft | 454 kts | 163° |
| 2026-05-06 15:19 | 53.88418 | -2.77823 | 33042 ft | 454 kts | 163° |
| 2026-05-06 15:20 | 53.82461 | -2.74451 | 33036 ft | 454 kts | 164° |
| 2026-05-06 15:20 | 53.76475 | -2.71076 | 33040 ft | 453 kts | 164° |
| 2026-05-06 15:21 | 53.70493 | -2.67708 | 33039 ft | 453 kts | 164° |
| 2026-05-06 15:21 | 53.64515 | -2.64349 | 33034 ft | 452 kts | 164° |
| 2026-05-06 15:22 | 53.58554 | -2.61007 | 33036 ft | 452 kts | 164° |
| 2026-05-06 15:22 | 53.52590 | -2.57692 | 33041 ft | 451 kts | 164° |
| 2026-05-06 15:23 | 53.46635 | -2.54377 | 33040 ft | 451 kts | 164° |
| 2026-05-06 15:23 | 53.40682 | -2.51068 | 33039 ft | 450 kts | 164° |
| 2026-05-06 15:24 | 53.34774 | -2.47801 | 33039 ft | 450 kts | 164° |
| 2026-05-06 15:24 | 53.28835 | -2.44529 | 33037 ft | 449 kts | 165° |
| 2026-05-06 15:25 | 53.22894 | -2.41265 | 33040 ft | 449 kts | 165° |
| 2026-05-06 15:25 | 53.16959 | -2.38013 | 33038 ft | 448 kts | 165° |
| 2026-05-06 15:26 | 53.11027 | -2.34770 | 33040 ft | 448 kts | 165° |
| 2026-05-06 15:26 | 53.05109 | -2.31540 | 33043 ft | 448 kts | 163° |
| 2026-05-06 15:27 | 52.99533 | -2.26785 | 33039 ft | 453 kts | 150° |
| 2026-05-06 15:27 | 52.94214 | -2.21172 | 33041 ft | 452 kts | 150° |
| 2026-05-06 15:28 | 52.88894 | -2.15611 | 33037 ft | 452 kts | 150° |
| 2026-05-06 15:28 | 52.86231 | -2.12830 | 32853 ft | 453 kts | 150° |
| 2026-05-06 15:28 | 52.83570 | -2.10057 | 32580 ft | 452 kts | 150° |
| 2026-05-06 15:28 | 52.80904 | -2.07286 | 32312 ft | 452 kts | 150° |
| 2026-05-06 15:29 | 52.78238 | -2.04521 | 32018 ft | 452 kts | 150° |
| 2026-05-06 15:29 | 52.75563 | -2.01746 | 31164 ft | 456 kts | 150° |
| 2026-05-06 15:29 | 52.72899 | -1.98980 | 30728 ft | 449 kts | 151° |
| 2026-05-06 15:29 | 52.70262 | -1.96247 | 30158 ft | 446 kts | 151° |
| 2026-05-06 15:30 | 52.67673 | -1.93573 | 29544 ft | 443 kts | 151° |
| 2026-05-06 15:30 | 52.65069 | -1.90885 | 28987 ft | 437 kts | 151° |
| 2026-05-06 15:30 | 52.62504 | -1.88239 | 28432 ft | 433 kts | 151° |
| 2026-05-06 15:30 | 52.59966 | -1.85625 | 27875 ft | 429 kts | 150° |
| 2026-05-06 15:31 | 52.57443 | -1.83032 | 27342 ft | 425 kts | 150° |
| 2026-05-06 15:31 | 52.54946 | -1.80470 | 26798 ft | 422 kts | 150° |
| 2026-05-06 15:31 | 52.52461 | -1.77923 | 26267 ft | 419 kts | 150° |
| 2026-05-06 15:32 | 52.47548 | -1.72904 | 25236 ft | 414 kts | 150° |
| 2026-05-06 15:32 | 52.45109 | -1.70418 | 24728 ft | 412 kts | 150° |
| 2026-05-06 15:32 | 52.42684 | -1.67948 | 24241 ft | 410 kts | 150° |
| 2026-05-06 15:32 | 52.40269 | -1.65487 | 23763 ft | 408 kts | 150° |
| 2026-05-06 15:33 | 52.37858 | -1.63029 | 23250 ft | 406 kts | 150° |
| 2026-05-06 15:33 | 52.35471 | -1.60595 | 22786 ft | 403 kts | 150° |
| 2026-05-06 15:33 | 52.33101 | -1.58183 | 22325 ft | 400 kts | 150° |
| 2026-05-06 15:33 | 52.30745 | -1.55790 | 21864 ft | 398 kts | 150° |
| 2026-05-06 15:34 | 52.28400 | -1.53415 | 21396 ft | 395 kts | 150° |
| 2026-05-06 15:34 | 52.26068 | -1.51063 | 20928 ft | 393 kts | 150° |
| 2026-05-06 15:34 | 52.23770 | -1.48752 | 20453 ft | 391 kts | 150° |
| 2026-05-06 15:34 | 52.21496 | -1.46339 | 19974 ft | 390 kts | 144° |
| 2026-05-06 15:35 | 52.19427 | -1.43499 | 19583 ft | 386 kts | 140° |
| 2026-05-06 15:35 | 52.17402 | -1.40652 | 19200 ft | 382 kts | 140° |
| 2026-05-06 15:35 | 52.15395 | -1.37844 | 18813 ft | 379 kts | 140° |
| 2026-05-06 15:35 | 52.13393 | -1.35056 | 18429 ft | 377 kts | 140° |
| 2026-05-06 15:36 | 52.11405 | -1.32295 | 18013 ft | 375 kts | 140° |
| 2026-05-06 15:36 | 52.09421 | -1.29545 | 17629 ft | 374 kts | 140° |
| 2026-05-06 15:36 | 52.07446 | -1.26807 | 17246 ft | 372 kts | 140° |
| 2026-05-06 15:36 | 52.05484 | -1.24083 | 16869 ft | 370 kts | 140° |
| 2026-05-06 15:37 | 52.03536 | -1.21380 | 16487 ft | 368 kts | 140° |
| 2026-05-06 15:37 | 52.01597 | -1.18691 | 16096 ft | 366 kts | 140° |
| 2026-05-06 15:37 | 51.99663 | -1.16018 | 15724 ft | 364 kts | 140° |
| 2026-05-06 15:37 | 51.97737 | -1.13360 | 15359 ft | 362 kts | 140° |
| 2026-05-06 15:38 | 51.95822 | -1.10721 | 15040 ft | 360 kts | 140° |
| 2026-05-06 15:38 | 51.93925 | -1.08108 | 14981 ft | 351 kts | 140° |
| 2026-05-06 15:38 | 51.92090 | -1.05582 | 14677 ft | 342 kts | 140° |
| 2026-05-06 15:38 | 51.90284 | -1.03100 | 13944 ft | 339 kts | 140° |
| 2026-05-06 15:39 | 51.88506 | -1.00657 | 13440 ft | 328 kts | 140° |
| 2026-05-06 15:39 | 51.86809 | -0.98324 | 13174 ft | 312 kts | 140° |
| 2026-05-06 15:39 | 51.85334 | -0.95893 | 12914 ft | 296 kts | 125° |
| 2026-05-06 15:39 | 51.84335 | -0.93075 | 12642 ft | 283 kts | 115° |
| 2026-05-06 15:40 | 51.83480 | -0.90251 | 12310 ft | 277 kts | 115° |
| 2026-05-06 15:40 | 51.82627 | -0.87473 | 11846 ft | 274 kts | 115° |
| 2026-05-06 15:40 | 51.81781 | -0.84724 | 11353 ft | 272 kts | 115° |
| 2026-05-06 15:40 | 51.80946 | -0.82004 | 10864 ft | 270 kts | 115° |
| 2026-05-06 15:41 | 51.79875 | -0.79469 | 10069 ft | 279 kts | 140° |
| 2026-05-06 15:41 | 51.78234 | -0.78074 | 9760 ft | 267 kts | 169° |
| 2026-05-06 15:41 | 51.76387 | -0.77750 | 9315 ft | 263 kts | 179° |
| 2026-05-06 15:41 | 51.74586 | -0.77684 | 8825 ft | 261 kts | 181° |
| 2026-05-06 15:42 | 51.72782 | -0.77655 | 8344 ft | 259 kts | 181° |
| 2026-05-06 15:42 | 51.70990 | -0.77638 | 7871 ft | 256 kts | 181° |
| 2026-05-06 15:42 | 51.69214 | -0.77629 | 7389 ft | 254 kts | 181° |
| 2026-05-06 15:42 | 51.67462 | -0.77630 | 7128 ft | 250 kts | 181° |
| 2026-05-06 15:43 | 51.65736 | -0.77637 | 6952 ft | 246 kts | 181° |
| 2026-05-06 15:43 | 51.64009 | -0.77648 | 6558 ft | 251 kts | 181° |
| 2026-05-06 15:43 | 51.62256 | -0.77665 | 6231 ft | 253 kts | 181° |
| 2026-05-06 15:43 | 51.60506 | -0.77688 | 5850 ft | 249 kts | 181° |
| 2026-05-06 15:44 | 51.58780 | -0.77709 | 5454 ft | 247 kts | 181° |
| 2026-05-06 15:44 | 51.57072 | -0.77734 | 5063 ft | 245 kts | 181° |
| 2026-05-06 15:44 | 51.55363 | -0.77770 | 4691 ft | 246 kts | 181° |
| 2026-05-06 15:44 | 51.53664 | -0.77814 | 4478 ft | 242 kts | 181° |
| 2026-05-06 15:45 | 51.52020 | -0.77860 | 4238 ft | 233 kts | 181° |
| 2026-05-06 15:45 | 51.50405 | -0.77912 | 3795 ft | 231 kts | 181° |
| 2026-05-06 15:45 | 51.48839 | -0.77968 | 3645 ft | 220 kts | 180° |
| 2026-05-06 15:45 | 51.47398 | -0.77491 | 3541 ft | 209 kts | 142° |
| 2026-05-06 15:46 | 51.46582 | -0.75690 | 3432 ft | 199 kts | 96° |
| 2026-05-06 15:46 | 51.46808 | -0.73627 | 3241 ft | 187 kts | 54° |
| 2026-05-06 15:46 | 51.47478 | -0.71918 | 3009 ft | 184 kts | 66° |
| 2026-05-06 15:46 | 51.47577 | -0.69870 | 2778 ft | 186 kts | 86° |
| 2026-05-06 15:47 | 51.47622 | -0.67805 | 2522 ft | 184 kts | 84° |
| 2026-05-06 15:47 | 51.47655 | -0.65760 | 2285 ft | 183 kts | 85° |
| 2026-05-06 15:47 | 51.47673 | -0.63721 | 2028 ft | 181 kts | 85° |
| 2026-05-06 15:47 | 51.47685 | -0.61755 | 1788 ft | 172 kts | 85° |
| 2026-05-06 15:48 | 51.47695 | -0.59880 | 1550 ft | 165 kts | 86° |
| 2026-05-06 15:48 | 51.47704 | -0.58059 | 1333 ft | 162 kts | 85° |
| 2026-05-06 15:48 | 51.47713 | -0.56266 | 1114 ft | 160 kts | 85° |
| 2026-05-06 15:48 | 51.47721 | -0.54512 | 898 ft | 153 kts | 85° |
| 2026-05-06 15:49 | 51.47728 | -0.52887 | 680 ft | 142 kts | 85° |
| 2026-05-06 15:49 | 51.47735 | -0.51325 | 435 ft | 139 kts | 84° |
| 2026-05-06 15:49 | 51.47743 | -0.49780 | 285 ft | 137 kts | 86° |
| 2026-05-06 15:49 | 51.47750 | -0.48256 | 113 ft | 137 kts | 85° |
| 2026-05-06 15:50 | 51.47758 | -0.46903 | 92 ft | 102 kts | 90° |
| 2026-05-06 15:50 | 51.47760 | -0.45952 | 85 ft | 70 kts | 90° |
| 2026-05-06 15:50 | 51.47743 | -0.45491 | 86 ft | 16 kts | 129° |
| 2026-05-06 15:50 | 51.47632 | -0.45472 | 87 ft | 16 kts | 189° |
| 2026-05-06 15:51 | 51.47595 | -0.45627 | 89 ft | 17 kts | 269° |
| 2026-05-06 15:51 | 51.47595 | -0.45834 | 89 ft | 20 kts | 270° |
| 2026-05-06 15:51 | 51.47595 | -0.46069 | 90 ft | 22 kts | 269° |
| 2026-05-06 15:51 | 51.47594 | -0.46330 | 87 ft | 25 kts | 270° |
| 2026-05-06 15:52 | 51.47592 | -0.46617 | 87 ft | 27 kts | 269° |
| 2026-05-06 15:52 | 51.47585 | -0.46878 | 89 ft | 23 kts | 262° |
| 2026-05-06 15:52 | 51.47582 | -0.47148 | 90 ft | 25 kts | 270° |
| 2026-05-06 15:52 | 51.47582 | -0.47439 | 90 ft | 27 kts | 269° |
| 2026-05-06 15:53 | 51.47580 | -0.47737 | 90 ft | 27 kts | 269° |
| 2026-05-06 15:53 | 51.47579 | -0.48048 | 89 ft | 29 kts | 269° |
| 2026-05-06 15:53 | 51.47578 | -0.48374 | 89 ft | 30 kts | 270° |
| 2026-05-06 15:53 | 51.47576 | -0.48713 | 87 ft | 28 kts | 269° |
| 2026-05-06 15:54 | 51.47571 | -0.48921 | 87 ft | 14 kts | 250° |
| 2026-05-06 15:54 | 51.47496 | -0.48922 | 89 ft | 8 kts | 132° |
| 2026-05-06 15:54 | 51.47480 | -0.48902 | 89 ft | 3 kts | 148° |
| 2026-05-06 15:54 | 51.47455 | -0.48894 | 87 ft | 5 kts | 176° |
| 2026-05-06 15:55 | 51.47415 | -0.48894 | 87 ft | 2 kts | 180° |
| 2026-05-06 15:55 | 51.47407 | -0.48893 | 87 ft | 1 kts | 180° |
| 2026-05-06 15:55 | 51.47404 | -0.48893 | 87 ft | 0 kts | 180° |